createdAt,value
2022-09-10T00:01:37.218Z,14.40
2022-09-10T00:04:10.355Z,14.38
2022-09-10T00:06:38.808Z,14.34
2022-09-10T00:09:07.471Z,14.26
2022-09-10T00:11:38.523Z,14.21
2022-09-10T00:14:08.746Z,14.15
2022-09-10T00:16:38.253Z,14.09
2022-09-10T00:19:06.665Z,14.09
2022-09-10T00:21:35.633Z,14.06
2022-09-10T00:24:05.161Z,14.09
2022-09-10T00:26:38.191Z,14.12
2022-09-10T00:29:07.672Z,14.12
2022-09-10T00:31:38.534Z,14.07
2022-09-10T00:34:07.161Z,14.08
2022-09-10T00:36:38.595Z,14.11
2022-09-10T00:39:09.629Z,14.13
2022-09-10T00:41:40.413Z,14.10
2022-09-10T00:44:35.100Z,14.07
2022-09-10T00:47:06.337Z,14.05
2022-09-10T00:49:39.047Z,14.06
2022-09-10T00:52:08.111Z,14.06
2022-09-10T00:54:37.361Z,13.97
2022-09-10T00:57:10.694Z,13.96
2022-09-10T00:59:39.068Z,13.92
2022-09-10T01:02:08.803Z,13.93
2022-09-10T01:04:38.169Z,13.90
2022-09-10T01:07:06.908Z,13.89
2022-09-10T01:09:34.945Z,13.89
2022-09-10T01:12:10.795Z,13.88
2022-09-10T01:14:54.550Z,13.93
2022-09-10T01:17:30.812Z,13.94
2022-09-10T01:20:43.691Z,13.90
2022-09-10T01:23:47.750Z,13.89
2022-09-10T01:26:27.265Z,13.82
2022-09-10T01:29:01.265Z,13.80
2022-09-10T01:31:35.248Z,13.79
2022-09-10T01:34:09.343Z,13.82
2022-09-10T01:36:39.987Z,13.82
2022-09-10T01:39:08.191Z,13.81
2022-09-10T01:41:37.080Z,13.78
2022-09-10T01:44:11.216Z,13.76
2022-09-10T01:46:49.883Z,13.72
2022-09-10T01:49:26.008Z,13.71
2022-09-10T01:52:05.976Z,13.62
2022-09-10T01:54:46.121Z,13.60
2022-09-10T01:57:24.447Z,13.59
2022-09-10T02:00:00.020Z,13.54
2022-09-10T02:02:32.157Z,13.53
2022-09-10T02:05:02.458Z,13.54
2022-09-10T02:07:32.074Z,13.55
2022-09-10T02:10:01.056Z,13.50
2022-09-10T02:12:33.263Z,13.49
2022-09-10T02:15:22.443Z,13.46
2022-09-10T02:18:11.083Z,13.43
2022-09-10T02:20:40.553Z,13.45
2022-09-10T02:23:09.383Z,13.48
2022-09-10T02:25:38.345Z,13.48
2022-09-10T02:28:06.802Z,13.43
2022-09-10T02:30:36.346Z,13.45
2022-09-10T02:33:04.933Z,13.44
2022-09-10T02:35:32.942Z,13.38
2022-09-10T02:38:01.273Z,13.39
2022-09-10T02:40:31.846Z,13.41
2022-09-10T02:43:00.018Z,13.41
2022-09-10T02:45:29.754Z,13.39
2022-09-10T02:47:59.196Z,13.42
2022-09-10T02:50:28.021Z,13.43
2022-09-10T02:52:56.018Z,13.43
2022-09-10T02:55:24.064Z,13.44
2022-09-10T02:57:52.599Z,13.42
2022-09-10T03:00:20.940Z,13.45
2022-09-10T03:02:49.050Z,13.45
2022-09-10T03:05:18.730Z,13.44
2022-09-10T03:07:47.485Z,13.43
2022-09-10T03:10:15.505Z,13.43
2022-09-10T03:12:45.618Z,13.41
2022-09-10T03:15:13.840Z,13.42
2022-09-10T03:17:41.936Z,13.40
2022-09-10T03:20:10.871Z,13.41
2022-09-10T03:22:40.230Z,13.42
2022-09-10T03:25:09.067Z,13.41
2022-09-10T03:27:38.329Z,13.40
2022-09-10T03:30:10.456Z,13.37
2022-09-10T03:32:38.466Z,13.36
2022-09-10T03:35:10.120Z,13.38
2022-09-10T03:37:40.731Z,13.37
2022-09-10T03:40:10.810Z,13.37
2022-09-10T03:42:38.868Z,13.34
2022-09-10T03:45:08.260Z,13.35
2022-09-10T03:47:37.600Z,13.33
2022-09-10T03:50:06.945Z,13.31
2022-09-10T03:52:35.737Z,13.28
2022-09-10T03:55:06.075Z,13.31
2022-09-10T03:57:34.290Z,13.30
2022-09-10T04:00:02.360Z,13.28
2022-09-10T04:02:31.485Z,13.29
2022-09-10T04:04:59.592Z,13.25
2022-09-10T04:07:27.655Z,13.28
2022-09-10T04:09:55.779Z,13.27
2022-09-10T04:12:27.082Z,13.25
2022-09-10T04:14:55.773Z,13.27
2022-09-10T04:17:25.418Z,13.27
2022-09-10T04:19:53.599Z,13.27
2022-09-10T04:22:22.524Z,13.25
2022-09-10T04:24:51.313Z,13.24
2022-09-10T04:27:19.301Z,13.23
2022-09-10T04:29:49.159Z,13.22
2022-09-10T04:32:18.489Z,13.20
2022-09-10T04:34:46.653Z,13.19
2022-09-10T04:37:18.784Z,13.23
2022-09-10T04:39:48.066Z,13.22
2022-09-10T04:42:17.850Z,13.19
2022-09-10T04:44:46.140Z,13.20
2022-09-10T04:47:16.093Z,13.21
2022-09-10T04:49:44.571Z,13.20
2022-09-10T04:52:13.238Z,13.21
2022-09-10T04:54:41.732Z,13.20
2022-09-10T04:57:13.437Z,13.24
2022-09-10T04:59:41.771Z,13.24
2022-09-10T05:02:10.585Z,13.19
2022-09-10T05:04:40.415Z,13.23
2022-09-10T05:07:08.583Z,13.26
2022-09-10T05:09:37.547Z,13.27
2022-09-10T05:12:06.189Z,13.30
2022-09-10T05:14:34.548Z,13.32
2022-09-10T05:17:03.318Z,13.33
2022-09-10T05:19:32.010Z,13.33
2022-09-10T05:22:07.133Z,13.31
2022-09-10T05:24:35.528Z,13.32
2022-09-10T05:27:05.723Z,13.35
2022-09-10T05:29:34.818Z,13.35
2022-09-10T05:32:03.252Z,13.36
2022-09-10T05:34:31.247Z,13.35
2022-09-10T05:36:59.280Z,13.29
2022-09-10T05:39:28.645Z,13.26
2022-09-10T05:41:57.328Z,13.18
2022-09-10T05:44:25.341Z,13.20
2022-09-10T05:46:53.645Z,13.29
2022-09-10T05:49:22.247Z,13.33
2022-09-10T05:51:50.449Z,13.37
2022-09-10T05:54:18.496Z,13.35
2022-09-10T05:56:48.760Z,13.39
2022-09-10T05:59:16.951Z,13.41
2022-09-10T06:01:51.513Z,13.43
2022-09-10T06:04:22.120Z,13.40
2022-09-10T06:06:50.370Z,13.41
2022-09-10T06:09:19.249Z,13.29
2022-09-10T06:11:58.309Z,13.39
2022-09-10T06:14:26.686Z,13.44
2022-09-10T06:17:20.050Z,13.50
2022-09-10T06:19:51.928Z,13.54
2022-09-10T06:22:20.504Z,13.55
2022-09-10T06:24:53.780Z,13.54
2022-09-10T06:27:24.146Z,13.60
2022-09-10T06:29:52.429Z,13.50
2022-09-10T06:32:20.622Z,13.48
2022-09-10T06:34:48.655Z,13.50
2022-09-10T06:37:16.714Z,13.47
2022-09-10T06:39:46.133Z,13.55
2022-09-10T06:42:14.181Z,13.53
2022-09-10T06:45:02.274Z,13.56
2022-09-10T06:48:32.742Z,13.69
2022-09-10T06:50:51.085Z,13.56
2022-09-10T06:53:22.116Z,13.60
2022-09-10T06:55:53.063Z,13.61
2022-09-10T06:58:23.482Z,13.69
2022-09-10T07:00:53.697Z,13.69
2022-09-10T07:03:23.591Z,13.70
2022-09-10T07:05:53.410Z,13.76
2022-09-10T07:08:23.112Z,13.69
2022-09-10T07:11:00.864Z,13.62
2022-09-10T07:13:29.006Z,13.67
2022-09-10T07:15:58.988Z,13.68
2022-09-10T07:18:28.813Z,13.76
2022-09-10T07:21:07.746Z,13.81
2022-09-10T07:23:36.278Z,13.93
2022-09-10T07:26:05.383Z,14.05
2022-09-10T07:28:38.769Z,14.07
2022-09-10T07:31:18.421Z,14.14
2022-09-10T07:33:48.513Z,14.17
2022-09-10T07:36:18.562Z,14.17
2022-09-10T07:38:48.683Z,14.27
2022-09-10T07:41:16.763Z,14.32
2022-09-10T07:43:45.207Z,14.32
2022-09-10T07:46:20.581Z,14.34
2022-09-10T07:48:55.027Z,14.40
2022-09-10T07:51:24.418Z,14.33
2022-09-10T07:53:54.058Z,14.45
2022-09-10T07:56:23.810Z,14.40
2022-09-10T07:58:54.937Z,14.32
2022-09-10T08:01:24.953Z,14.33
2022-09-10T08:03:57.347Z,14.37
2022-09-10T08:06:26.173Z,14.53
2022-09-10T08:08:55.101Z,14.64
2022-09-10T08:11:24.345Z,14.78
2022-09-10T08:13:56.894Z,14.86
2022-09-10T08:16:30.108Z,14.75
2022-09-10T08:19:05.393Z,14.89
2022-09-10T08:21:36.977Z,15.00
2022-09-10T08:24:07.626Z,15.09
2022-09-10T08:26:36.164Z,15.14
2022-09-10T08:29:06.508Z,15.18
2022-09-10T08:31:35.905Z,15.16
2022-09-10T08:34:12.312Z,15.22
2022-09-10T08:36:42.419Z,15.25
2022-09-10T08:39:12.385Z,15.31
2022-09-10T08:41:48.531Z,15.29
2022-09-10T08:44:28.995Z,15.40
2022-09-10T08:47:05.152Z,15.55
2022-09-10T08:49:37.995Z,15.58
2022-09-10T08:52:16.453Z,15.57
2022-09-10T08:54:50.246Z,15.69
2022-09-10T08:57:23.740Z,15.74
2022-09-10T08:59:53.677Z,15.71
2022-09-10T09:02:47.069Z,15.80
2022-09-10T09:05:17.945Z,15.80
2022-09-10T09:07:49.501Z,15.76
2022-09-10T09:10:30.225Z,15.66
2022-09-10T09:13:16.114Z,15.68
2022-09-10T09:15:51.875Z,15.72
2022-09-10T09:18:28.051Z,15.79
2022-09-10T09:20:58.414Z,15.91
2022-09-10T09:23:33.267Z,15.93
2022-09-10T09:26:05.090Z,16.06
2022-09-10T09:28:42.227Z,16.09
2022-09-10T09:31:15.313Z,16.10
2022-09-10T09:33:46.521Z,15.88
2022-09-10T09:36:18.046Z,16.01
2022-09-10T09:38:50.843Z,16.00
2022-09-10T09:41:26.093Z,16.07
2022-09-10T09:43:58.823Z,16.21
2022-09-10T09:46:27.540Z,16.31
2022-09-10T09:49:02.362Z,16.30
2022-09-10T09:51:35.491Z,16.34
2022-09-10T09:56:58.946Z,16.55
2022-09-10T09:59:29.720Z,16.69
2022-09-10T10:02:01.669Z,16.76
2022-09-10T10:04:33.917Z,16.81
2022-09-10T10:07:03.468Z,16.73
2022-09-10T10:09:33.050Z,16.59
2022-09-10T10:12:02.255Z,16.42
2022-09-10T10:14:39.415Z,16.45
2022-09-10T10:17:37.255Z,16.46
2022-09-10T10:20:16.932Z,16.48
2022-09-10T10:22:46.242Z,16.56
2022-09-10T10:25:38.252Z,16.45
2022-09-10T10:28:15.596Z,16.57
2022-09-10T10:30:44.689Z,16.55
2022-09-10T10:33:19.298Z,16.65
2022-09-10T10:35:51.618Z,16.50
2022-09-10T10:38:31.400Z,16.60
2022-09-10T10:41:14.407Z,16.63
2022-09-10T10:43:48.692Z,16.60
2022-09-10T10:46:22.806Z,16.65
2022-09-10T10:49:03.525Z,16.78
2022-09-10T10:51:40.505Z,16.87
2022-09-10T10:54:20.484Z,16.93
2022-09-10T10:56:57.291Z,17.00
2022-09-10T10:59:36.008Z,17.03
2022-09-10T11:02:28.458Z,17.25
2022-09-10T11:04:58.650Z,17.39
2022-09-10T11:07:30.915Z,17.49
2022-09-10T11:10:02.405Z,17.55
2022-09-10T11:12:33.928Z,17.49
2022-09-10T11:15:04.491Z,17.42
2022-09-10T11:17:35.838Z,17.28
2022-09-10T11:20:28.069Z,17.37
2022-09-10T11:23:04.401Z,17.42
2022-09-10T11:25:36.198Z,17.54
2022-09-10T11:28:11.079Z,17.62
2022-09-10T11:30:41.113Z,17.69
2022-09-10T11:33:17.605Z,17.78
2022-09-10T11:35:50.327Z,17.75
2022-09-10T11:38:23.111Z,17.79
2022-09-10T11:40:56.378Z,17.85
2022-09-10T11:43:30.540Z,17.85
2022-09-10T11:46:01.344Z,17.64
2022-09-10T11:48:33.816Z,17.32
2022-09-10T11:51:04.468Z,17.31
2022-09-10T11:53:34.300Z,17.33
2022-09-10T11:56:21.040Z,17.42
2022-09-10T11:58:55.875Z,17.25
2022-09-10T12:01:33.767Z,17.21
2022-09-10T12:04:15.263Z,17.23
2022-09-10T12:06:50.281Z,16.95
2022-09-10T12:09:23.592Z,17.00
2022-09-10T12:11:57.254Z,17.04
2022-09-10T12:14:25.383Z,16.68
2022-09-10T12:16:56.008Z,16.60
2022-09-10T12:19:29.244Z,16.59
2022-09-10T12:21:59.511Z,16.70
2022-09-10T12:24:31.960Z,16.82
2022-09-10T12:27:00.768Z,17.01
2022-09-10T12:29:33.193Z,17.13
2022-09-10T12:32:38.024Z,17.24
2022-09-10T12:35:43.854Z,17.32
2022-09-10T12:38:49.261Z,17.36
2022-09-10T12:41:59.710Z,17.26
2022-09-10T12:44:56.482Z,17.28
2022-09-10T12:47:46.804Z,17.42
2022-09-10T12:50:21.710Z,17.52
2022-09-10T12:53:03.668Z,17.36
2022-09-10T12:55:41.132Z,17.46
2022-09-10T12:58:19.075Z,17.55
2022-09-10T13:00:59.333Z,17.48
2022-09-10T13:03:29.020Z,17.35
2022-09-10T13:05:58.693Z,17.09
2022-09-10T13:08:28.978Z,17.04
2022-09-10T13:11:14.551Z,16.99
2022-09-10T13:13:46.255Z,16.91
2022-09-10T13:16:18.416Z,16.91
2022-09-10T13:18:47.681Z,16.81
2022-09-10T13:21:52.815Z,16.95
2022-09-10T13:24:55.447Z,16.89
2022-09-10T13:27:36.555Z,16.90
2022-09-10T13:30:16.544Z,16.68
2022-09-10T13:32:46.356Z,16.59
2022-09-10T13:35:50.699Z,16.49
2022-09-10T13:38:30.672Z,16.45
2022-09-10T13:41:10.884Z,16.32
2022-09-10T13:44:01.338Z,16.34
2022-09-10T13:46:35.294Z,16.44
2022-09-10T13:49:08.279Z,16.57
2022-09-10T13:51:41.005Z,16.65
2022-09-10T13:54:25.981Z,16.69
2022-09-10T13:56:54.362Z,16.77
2022-09-10T13:59:28.121Z,16.81
2022-09-10T14:01:58.327Z,16.88
2022-09-10T14:04:28.370Z,16.90
2022-09-10T14:06:59.465Z,16.96
2022-09-10T14:09:27.985Z,17.00
2022-09-10T14:11:56.355Z,16.93
2022-09-10T14:14:28.784Z,16.94
2022-09-10T14:17:01.031Z,17.01
2022-09-10T14:19:31.616Z,17.00
2022-09-10T14:21:59.696Z,16.88
2022-09-10T14:24:33.668Z,16.87
2022-09-10T14:27:21.906Z,16.75
2022-09-10T14:29:50.404Z,16.84
2022-09-10T14:32:31.680Z,17.03
2022-09-10T14:35:03.611Z,17.14
2022-09-10T14:37:37.821Z,17.15
2022-09-10T14:40:18.379Z,17.14
2022-09-10T14:42:46.671Z,17.31
2022-09-10T14:45:40.234Z,17.43
2022-09-10T14:48:29.558Z,17.45
2022-09-10T14:51:19.160Z,17.50
2022-09-10T14:53:52.118Z,17.54
2022-09-10T14:56:25.771Z,17.45
2022-09-10T14:58:59.004Z,17.53
2022-09-10T15:01:27.494Z,17.65
2022-09-10T15:03:56.948Z,17.47
2022-09-10T15:06:26.782Z,17.63
2022-09-10T15:08:56.186Z,17.82
2022-09-10T15:11:26.271Z,17.94
2022-09-10T15:13:56.034Z,18.03
2022-09-10T15:16:24.160Z,18.14
2022-09-10T15:18:52.176Z,18.33
2022-09-10T15:21:23.842Z,18.35
2022-09-10T15:23:51.934Z,18.48
2022-09-10T15:26:19.908Z,18.64
2022-09-10T15:28:47.879Z,18.56
2022-09-10T15:31:18.254Z,18.39
2022-09-10T15:33:46.334Z,18.47
2022-09-10T15:36:14.382Z,18.62
2022-09-10T15:38:43.774Z,18.60
2022-09-10T15:41:13.335Z,18.72
2022-09-10T15:43:43.536Z,18.53
2022-09-10T15:46:12.394Z,18.55
2022-09-10T15:48:40.748Z,18.48
2022-09-10T15:51:10.810Z,18.56
2022-09-10T15:53:40.495Z,18.58
2022-09-10T15:56:11.560Z,18.57
2022-09-10T15:58:40.042Z,18.56
2022-09-10T16:01:11.424Z,18.31
2022-09-10T16:03:40.508Z,18.34
2022-09-10T16:06:08.894Z,18.35
2022-09-10T16:08:37.270Z,18.18
2022-09-10T16:11:09.685Z,17.93
2022-09-10T16:13:39.159Z,17.80
2022-09-10T16:16:09.580Z,17.75
2022-09-10T16:18:37.946Z,17.83
2022-09-10T16:21:11.595Z,17.77
2022-09-10T16:23:41.529Z,17.73
2022-09-10T16:26:14.859Z,17.52
2022-09-10T16:28:43.886Z,17.40
2022-09-10T16:31:16.467Z,17.38
2022-09-10T16:33:45.518Z,17.49
2022-09-10T16:36:15.230Z,17.53
2022-09-10T16:38:44.686Z,17.44
2022-09-10T16:41:15.578Z,17.31
2022-09-10T16:43:44.593Z,17.50
2022-09-10T16:46:13.467Z,17.27
2022-09-10T16:48:43.546Z,17.35
2022-09-10T16:51:13.912Z,17.39
2022-09-10T16:53:43.370Z,17.40
2022-09-10T16:56:13.401Z,17.28
2022-09-10T16:58:47.289Z,17.23
2022-09-10T17:01:16.279Z,17.30
2022-09-10T17:03:45.519Z,17.26
2022-09-10T17:06:17.101Z,17.23
2022-09-10T17:08:45.473Z,17.36
2022-09-10T17:11:14.324Z,17.35
2022-09-10T17:13:43.901Z,17.22
2022-09-10T17:16:17.484Z,17.17
2022-09-10T17:18:46.161Z,17.03
2022-09-10T17:21:15.296Z,17.08
2022-09-10T17:23:44.051Z,16.94
2022-09-10T17:26:11.995Z,17.07
2022-09-10T17:28:40.397Z,17.14
2022-09-10T17:31:09.893Z,17.20
2022-09-10T17:33:39.042Z,17.22
2022-09-10T17:36:07.421Z,17.21
2022-09-10T17:38:35.604Z,17.05
2022-09-10T17:41:04.954Z,17.06
2022-09-10T17:43:36.442Z,17.02
2022-09-10T17:46:05.144Z,17.03
2022-09-10T17:48:35.665Z,16.99
2022-09-10T17:51:03.845Z,16.96
2022-09-10T17:53:31.840Z,16.90
2022-09-10T17:56:03.685Z,16.91
2022-09-10T17:58:32.567Z,16.94
2022-09-10T18:01:01.994Z,16.87
2022-09-10T18:03:31.572Z,16.81
2022-09-10T18:06:05.109Z,16.82
2022-09-10T18:08:33.452Z,16.77
2022-09-10T18:11:02.377Z,16.76
2022-09-10T18:13:30.466Z,16.67
2022-09-10T18:15:58.661Z,16.59
2022-09-10T18:18:26.745Z,16.56
2022-09-10T18:20:54.737Z,16.51
2022-09-10T18:23:24.122Z,16.50
2022-09-10T18:25:52.672Z,16.51
2022-09-10T18:28:20.684Z,16.51
2022-09-10T18:30:50.134Z,16.52
2022-09-10T18:33:18.863Z,16.48
2022-09-10T18:35:47.367Z,16.48
2022-09-10T18:38:15.425Z,16.44
2022-09-10T18:40:44.714Z,16.38
2022-09-10T18:43:13.661Z,16.33
2022-09-10T18:45:42.250Z,16.29
2022-09-10T18:48:10.280Z,16.22
2022-09-10T18:50:38.328Z,16.24
2022-09-10T18:53:06.381Z,16.21
2022-09-10T18:55:34.400Z,16.22
2022-09-10T18:58:03.929Z,16.21
2022-09-10T19:00:33.601Z,16.18
2022-09-10T19:03:01.593Z,16.14
2022-09-10T19:05:29.564Z,16.14
2022-09-10T19:07:57.510Z,16.16
2022-09-10T19:10:25.489Z,16.16
2022-09-10T19:12:53.507Z,16.13
2022-09-10T19:15:22.874Z,16.09
2022-09-10T19:17:50.904Z,16.00
2022-09-10T19:20:18.894Z,15.96
2022-09-10T19:22:46.925Z,16.01
2022-09-10T19:25:15.131Z,16.01
2022-09-10T19:27:45.126Z,15.98
2022-09-10T19:30:14.393Z,15.93
2022-09-10T19:32:43.722Z,15.95
2022-09-10T19:35:11.725Z,15.93
2022-09-10T19:37:39.711Z,15.92
2022-09-10T19:40:08.885Z,15.84
2022-09-10T19:42:36.918Z,15.68
2022-09-10T19:45:09.541Z,15.70
2022-09-10T19:47:38.429Z,15.62
2022-09-10T19:50:08.375Z,15.64
2022-09-10T19:52:36.734Z,15.56
2022-09-10T19:55:05.345Z,15.40
2022-09-10T19:57:33.817Z,15.50
2022-09-10T20:00:01.934Z,15.51
2022-09-10T20:02:39.560Z,15.44
2022-09-10T20:05:10.561Z,15.42
2022-09-10T20:07:38.584Z,15.47
2022-09-10T20:10:07.381Z,15.44
2022-09-10T20:12:35.462Z,15.45
2022-09-10T20:15:03.773Z,15.37
2022-09-10T20:17:31.802Z,15.37
2022-09-10T20:19:59.758Z,15.29
2022-09-10T20:22:29.111Z,15.29
2022-09-10T20:24:57.456Z,15.33
2022-09-10T20:27:25.479Z,15.34
2022-09-10T20:29:54.105Z,15.39
2022-09-10T20:32:22.325Z,15.44
2022-09-10T20:34:50.746Z,15.41
2022-09-10T20:37:19.223Z,15.40
2022-09-10T20:39:50.348Z,15.47
2022-09-10T20:42:18.422Z,15.39
2022-09-10T20:44:46.511Z,15.45
2022-09-10T20:47:14.762Z,15.56
2022-09-10T20:49:42.710Z,15.62
2022-09-10T20:52:10.951Z,15.62
2022-09-10T20:54:39.059Z,15.61
2022-09-10T20:57:08.447Z,15.61
2022-09-10T20:59:36.837Z,15.66
2022-09-10T21:02:04.971Z,15.70
2022-09-10T21:04:33.444Z,15.67
2022-09-10T21:07:01.406Z,15.73
2022-09-10T21:09:29.409Z,15.77
2022-09-10T21:11:57.463Z,15.76
2022-09-10T21:14:27.567Z,15.75
2022-09-10T21:16:55.543Z,15.77
2022-09-10T21:19:26.240Z,15.78
2022-09-10T21:21:54.344Z,15.79
2022-09-10T21:24:23.126Z,15.74
2022-09-10T21:26:53.274Z,15.72
2022-09-10T21:29:22.424Z,15.68
2022-09-10T21:31:54.554Z,15.62
2022-09-10T21:34:23.415Z,15.58
2022-09-10T21:36:51.796Z,15.55
2022-09-10T21:39:19.750Z,15.53
2022-09-10T21:41:49.003Z,15.54
2022-09-10T21:44:19.714Z,15.54
2022-09-10T21:46:48.615Z,15.46
2022-09-10T21:49:18.441Z,15.41
2022-09-10T21:51:46.820Z,15.37
2022-09-10T21:54:17.105Z,15.35
2022-09-10T21:56:45.378Z,15.38
2022-09-10T21:59:14.742Z,15.30
2022-09-10T22:01:44.584Z,15.26
2022-09-10T22:04:16.809Z,15.22
2022-09-10T22:06:48.669Z,15.24
2022-09-10T22:09:17.559Z,15.18
2022-09-10T22:11:47.300Z,15.23
2022-09-10T22:14:17.255Z,15.19
2022-09-10T22:16:46.329Z,15.27
2022-09-10T22:19:16.016Z,15.22
2022-09-10T22:21:44.057Z,15.11
2022-09-10T22:24:14.912Z,14.96
2022-09-10T22:26:44.393Z,14.93
2022-09-10T22:29:37.268Z,14.94
2022-09-10T22:32:05.302Z,14.98
2022-09-10T22:34:33.255Z,14.89
2022-09-10T22:37:03.527Z,14.92
2022-09-10T22:39:36.804Z,14.92
2022-09-10T22:42:05.498Z,14.81
2022-09-10T22:44:33.456Z,14.71
2022-09-10T22:47:01.374Z,14.70
2022-09-10T22:49:29.336Z,14.75
2022-09-10T22:51:57.302Z,14.76
2022-09-10T22:54:25.245Z,14.60
2022-09-10T22:56:54.527Z,14.58
2022-09-10T22:59:22.459Z,14.54
2022-09-10T23:01:51.193Z,14.49
2022-09-10T23:04:19.246Z,14.54
2022-09-10T23:06:47.202Z,14.60
2022-09-10T23:09:16.880Z,14.65
2022-09-10T23:11:45.455Z,14.72
2022-09-10T23:14:17.875Z,14.73
2022-09-10T23:16:48.209Z,14.76
2022-09-10T23:19:17.539Z,14.69
2022-09-10T23:21:46.757Z,14.69
2022-09-10T23:24:16.732Z,14.79
2022-09-10T23:26:45.496Z,14.69
2022-09-10T23:29:17.055Z,14.72
2022-09-10T23:31:45.947Z,14.73
2022-09-10T23:34:15.408Z,14.66
2022-09-10T23:36:45.229Z,14.61
2022-09-10T23:39:14.947Z,14.60
2022-09-10T23:41:43.263Z,14.59
2022-09-10T23:44:11.241Z,14.65
2022-09-10T23:46:40.942Z,14.66
2022-09-10T23:49:09.297Z,14.43
2022-09-10T23:51:37.683Z,14.48
2022-09-10T23:54:05.805Z,14.52
2022-09-10T23:56:33.912Z,14.60
2022-09-10T23:59:03.506Z,14.60
